Time;durP1;ratioP1;P1;durP2;ratioP2;P2;SDS_P1;SDS_P2;PMS_P1;PMS_P2;Temp;Humidity;BMP_temperature;BMP_pressure;BME280_temperature;BME280_humidity;BME280_pressure;Samples;Min_cycle;Max_cycle;Signal;HPM_P1;HPM_P2
2022/08/18 05:56:47;;;;;;;4.85;2.17;;;19.30;99.90;;;;;;6190800;23;20025;-93
2022/08/18 05:59:25;;;;;;;3.85;1.95;;;19.30;99.90;;;;;;6143632;23;20416;-96
2022/08/18 07:36:44;;;;;;;4.22;1.10;;;19.00;99.90;;;;;;6292597;22;20022;-94
2022/08/18 07:39:23;;;;;;;3.03;1.25;;;18.90;99.90;;;;;;6267358;22;20019;-92
2022/08/18 08:02:45;;;;;;;2.17;0.82;;;19.00;99.90;;;;;;6317294;22;20025;-96
2022/08/18 13:05:41;;;;;;;3.25;0.82;;;21.30;99.90;;;;;;6245213;22;20438;-93
2022/08/18 15:09:08;;;;;;;2.03;0.95;;;21.70;99.90;;;;;;6159319;22;2399043;-94
2022/08/18 16:26:54;;;;;;;1.63;0.70;;;21.10;99.90;;;;;;6263961;22;20098;-89
2022/08/18 16:29:20;;;;;;;3.60;0.80;;;21.10;99.90;;;;;;6245659;23;20066;-88
2022/08/18 16:31:46;;;;;;;2.17;0.82;;;21.10;99.90;;;;;;6224036;22;20045;-87
2022/08/18 16:34:12;;;;;;;2.13;0.70;;;21.10;99.90;;;;;;6224209;22;20016;-90
2022/08/18 16:36:47;;;;;;;2.20;0.90;;;21.10;99.90;;;;;;6248917;22;20015;-88
2022/08/18 16:39:12;;;;;;;2.80;0.93;;;21.10;99.90;;;;;;6224163;22;20046;-88
2022/08/18 16:41:38;;;;;;;1.85;0.95;;;21.10;99.90;;;;;;6274746;22;20019;-89
2022/08/18 16:44:04;;;;;;;1.05;0.70;;;21.00;99.90;;;;;;6249036;22;20027;-89
2022/08/18 16:46:30;;;;;;;1.83;0.85;;;21.00;99.90;;;;;;6249264;22;20020;-91
2022/08/18 16:48:57;;;;;;;3.55;1.00;;;21.00;99.90;;;;;;6223647;22;20014;-87
2022/08/18 16:51:25;;;;;;;2.00;0.70;;;21.00;99.90;;;;;;6223916;22;20024;-89
2022/08/18 16:53:53;;;;;;;1.60;0.75;;;20.90;99.90;;;;;;6249435;22;20062;-89
2022/08/18 16:56:23;;;;;;;1.52;0.63;;;20.90;99.90;;;;;;6222670;22;20012;-89
2022/08/18 17:04:21;;;;;;;1.73;0.70;;;20.80;99.90;;;;;;6248623;22;20019;-88
2022/08/18 17:06:47;;;;;;;2.10;0.68;;;20.80;99.90;;;;;;6248915;22;20016;-89
2022/08/18 17:09:13;;;;;;;1.98;0.90;;;20.80;99.90;;;;;;6248746;22;20444;-88
2022/08/18 17:11:42;;;;;;;1.58;0.70;;;20.80;99.90;;;;;;6275971;22;20020;-89
2022/08/18 17:14:08;;;;;;;2.03;0.70;;;20.70;99.90;;;;;;6274290;22;20065;-89
2022/08/18 17:16:36;;;;;;;2.38;0.80;;;20.70;99.90;;;;;;6248986;22;20098;-89
2022/08/18 17:19:02;;;;;;;2.55;1.00;;;20.70;99.90;;;;;;6222661;22;20026;-91
2022/08/18 17:21:30;;;;;;;3.17;0.70;;;20.70;99.90;;;;;;6222924;22;20031;-88
2022/08/18 17:23:57;;;;;;;1.65;0.80;;;20.70;99.90;;;;;;6248988;22;20020;-90
2022/08/18 17:26:51;;;;;;;2.05;0.80;;;20.60;99.90;;;;;;6248533;22;20023;-90
2022/08/18 17:29:19;;;;;;;2.17;0.70;;;20.60;99.90;;;;;;6248054;22;20023;-89
2022/08/18 17:31:56;;;;;;;1.98;0.95;;;20.60;99.90;;;;;;6274102;22;20047;-89
2022/08/18 17:34:30;;;;;;;1.88;0.80;;;20.50;99.90;;;;;;6274186;22;20393;-89
2022/08/18 17:36:59;;;;;;;3.38;0.80;;;20.50;99.90;;;;;;6248818;22;20393;-89
2022/08/18 17:39:32;;;;;;;1.45;0.77;;;20.50;99.90;;;;;;6274419;22;20039;-89
2022/08/18 17:44:44;;;;;;;2.05;0.75;;;20.40;99.90;;;;;;6274314;22;20039;-89
2022/08/18 17:47:34;;;;;;;1.48;0.63;;;20.40;99.90;;;;;;6274522;22;20047;-92
2022/08/18 17:52:59;;;;;;;1.90;0.98;;;20.30;99.90;;;;;;6274032;22;20146;-90
2022/08/18 17:55:33;;;;;;;2.05;0.70;;;20.20;99.90;;;;;;6274158;22;20027;-91
2022/08/18 17:58:05;;;;;;;4.60;1.63;;;20.20;99.90;;;;;;6248695;22;20012;-92
2022/08/18 18:00:31;;;;;;;1.40;0.55;;;20.10;99.90;;;;;;6274041;22;20023;-89
2022/08/18 18:02:58;;;;;;;2.30;0.80;;;20.10;99.90;;;;;;6274059;22;20399;-88
2022/08/18 18:05:37;;;;;;;2.00;0.88;;;20.10;99.90;;;;;;6275761;22;20099;-92
2022/08/18 18:08:04;;;;;;;1.85;0.90;;;20.00;99.90;;;;;;6270176;22;20035;-92
2022/08/18 18:10:47;;;;;;;;;;;20.00;99.90;;;;;;6248212;22;20035;-91
2022/08/18 18:13:27;;;;;;;1.65;0.70;;;19.90;99.90;;;;;;6273756;22;19919;-92
2022/08/18 18:16:02;;;;;;;2.60;0.90;;;19.90;99.90;;;;;;6275290;22;20020;-91
2022/08/18 18:18:41;;;;;;;1.90;0.80;;;19.80;99.90;;;;;;6276068;22;20016;-92
2022/08/18 18:21:27;;;;;;;1.88;0.70;;;19.70;99.90;;;;;;6250566;22;20042;-90
2022/08/18 18:24:12;;;;;;;1.90;0.70;;;19.70;99.90;;;;;;6274791;22;20094;-91
2022/08/18 18:26:47;;;;;;;1.40;0.75;;;19.70;99.90;;;;;;6276330;22;20024;-92
2022/08/18 18:29:29;;;;;;;2.08;0.85;;;19.70;99.90;;;;;;6249606;22;20095;-90
2022/08/18 18:32:00;;;;;;;2.33;0.77;;;19.70;99.90;;;;;;6250483;22;20464;-90
2022/08/18 18:34:29;;;;;;;2.78;0.73;;;19.70;99.90;;;;;;6250823;22;20024;-90
2022/08/18 18:36:57;;;;;;;2.58;0.70;;;19.60;99.90;;;;;;6275980;22;20181;-89
2022/08/18 18:39:32;;;;;;;1.45;0.63;;;19.60;99.90;;;;;;6250432;22;20053;-89
2022/08/18 18:42:16;;;;;;;1.55;0.63;;;19.50;99.90;;;;;;6274828;22;20026;-94
2022/08/18 18:44:52;;;;;;;1.60;0.90;;;19.50;99.90;;;;;;6250091;22;20550;-90
2022/08/18 18:47:32;;;;;;;1.38;0.80;;;19.50;99.90;;;;;;6276057;22;20031;-94
2022/08/18 18:50:29;;;;;;;2.33;0.80;;;19.40;99.90;;;;;;6277235;22;20102;-88
2022/08/18 18:53:34;;;;;;;1.42;0.70;;;19.40;99.90;;;;;;6250573;22;20025;-92
2022/08/18 18:56:22;;;;;;;1.80;0.73;;;19.30;99.90;;;;;;6275968;22;20392;-88
2022/08/18 18:59:11;;;;;;;2.25;0.77;;;19.30;99.90;;;;;;6275625;22;20099;-91
2022/08/18 19:02:00;;;;;;;2.90;0.95;;;19.20;99.90;;;;;;6275443;22;20020;-90
2022/08/18 19:04:44;;;;;;;;;;;19.20;99.90;;;;;;6276242;22;20133;-90
2022/08/18 19:08:05;;;;;;;4.38;1.00;;;19.20;99.90;;;;;;6275689;22;19945;-89
2022/08/18 19:10:35;;;;;;;1.98;0.68;;;19.20;99.90;;;;;;6240353;22;20040;-89
2022/08/18 19:13:22;;;;;;;9.13;6.38;;;19.10;99.90;;;;;;6250335;22;20016;-87
2022/08/18 19:15:53;;;;;;;3.10;1.52;;;19.10;99.90;;;;;;6273073;22;20449;-89
2022/08/18 19:18:26;;;;;;;2.22;1.15;;;19.10;99.90;;;;;;6273721;22;20442;-88
2022/08/18 19:20:58;;;;;;;2.83;1.05;;;19.00;99.90;;;;;;6248059;22;20019;-85
2022/08/18 19:23:33;;;;;;;2.30;1.00;;;19.00;99.90;;;;;;6275171;22;20016;-90
2022/08/18 19:26:01;;;;;;;2.20;0.98;;;19.00;99.90;;;;;;6275241;22;20027;-85
2022/08/18 19:28:34;;;;;;;2.78;1.15;;;19.00;99.90;;;;;;6272659;22;20012;-88
2022/08/18 19:31:07;;;;;;;2.78;0.90;;;19.00;99.90;;;;;;6274479;22;20027;-87
2022/08/18 19:33:45;;;;;;;3.45;1.30;;;18.90;99.90;;;;;;6249035;22;20501;-89
2022/08/18 19:36:22;;;;;;;2.97;1.15;;;18.90;99.90;;;;;;6274847;22;20012;-87
2022/08/18 19:39:00;;;;;;;3.15;1.50;;;18.90;99.90;;;;;;6249158;22;20023;-91
2022/08/18 19:42:08;;;;;;;2.50;1.25;;;18.80;99.90;;;;;;6275299;22;20043;-87
2022/08/18 19:44:46;;;;;;;4.95;1.50;;;18.70;99.90;;;;;;6230057;22;20568;-88
2022/08/18 19:47:30;;;;;;;3.40;1.45;;;18.70;99.90;;;;;;6275360;22;20345;-88
2022/08/18 19:50:05;;;;;;;4.55;1.90;;;18.70;99.90;;;;;;6275240;22;20028;-88
2022/08/18 19:52:58;;;;;;;3.58;1.38;;;18.70;99.90;;;;;;6275062;22;20390;-88
2022/08/18 19:55:48;;;;;;;4.43;1.42;;;18.70;99.90;;;;;;6275043;22;20397;-89
2022/08/18 19:58:17;;;;;;;2.90;1.40;;;18.60;99.90;;;;;;6249468;22;20022;-88
2022/08/18 20:00:52;;;;;;;2.97;1.38;;;18.60;99.90;;;;;;6275071;22;20018;-87
2022/08/18 20:03:51;;;;;;;3.60;1.20;;;18.40;99.90;;;;;;6249355;22;20028;-91
2022/08/18 20:06:48;;;;;;;3.25;1.20;;;18.40;99.90;;;;;;6274641;22;20067;-90
2022/08/18 20:09:20;;;;;;;3.38;1.70;;;18.40;99.90;;;;;;6249229;22;20027;-88
2022/08/18 20:11:47;;;;;;;2.53;1.10;;;18.30;99.90;;;;;;6276435;22;20460;-87
2022/08/18 20:14:17;;;;;;;3.63;1.40;;;18.20;99.90;;;;;;6275107;22;20015;-88
2022/08/18 20:17:13;;;;;;;2.70;1.38;;;18.20;99.90;;;;;;6249453;22;20015;-87
2022/08/18 20:19:46;;;;;;;2.42;1.10;;;18.10;99.90;;;;;;6274589;22;20019;-87
2022/08/18 20:22:20;;;;;;;4.55;1.50;;;18.10;99.90;;;;;;6274895;22;20024;-87
2022/08/18 20:43:31;;;;;;;4.32;1.50;;;18.00;99.90;;;;;;6335177;22;20121;-88
2022/08/18 20:46:18;;;;;;;4.20;1.92;;;18.00;99.90;;;;;;6310422;22;20023;-91
2022/08/18 20:49:04;;;;;;;3.75;1.65;;;18.00;99.90;;;;;;6310711;22;20452;-90
2022/08/18 20:51:35;;;;;;;3.65;1.85;;;17.90;99.90;;;;;;6338352;22;20440;-88
2022/08/18 20:54:18;;;;;;;3.90;1.65;;;17.90;99.90;;;;;;6285145;22;20102;-88
2022/08/18 20:56:49;;;;;;;3.38;1.55;;;17.90;99.90;;;;;;6308366;22;20038;-89
2022/08/18 20:59:41;;;;;;;3.10;1.40;;;17.90;99.90;;;;;;6336297;22;20485;-89
2022/08/18 21:02:25;;;;;;;3.08;1.30;;;17.90;99.90;;;;;;6290250;22;20015;-88
2022/08/18 21:04:55;;;;;;;4.28;2.03;;;17.80;99.90;;;;;;6309982;22;20054;-89
2022/08/18 21:07:29;;;;;;;5.28;2.28;;;17.70;99.90;;;;;;6309893;22;20017;-90
2022/08/18 21:10:12;;;;;;;4.78;1.92;;;17.70;99.90;;;;;;6284018;22;20018;-89
2022/08/18 21:12:38;;;;;;;5.32;2.40;;;17.60;99.90;;;;;;6310011;22;20019;-92
2022/08/18 21:15:09;;;;;;;5.10;2.55;;;17.60;99.90;;;;;;6284809;22;20023;-89
2022/08/18 21:17:36;;;;;;;5.18;2.60;;;17.50;99.90;;;;;;6310447;22;20014;-90
2022/08/18 21:20:08;;;;;;;5.57;2.22;;;17.50;99.90;;;;;;6310658;22;20019;-89
2022/08/18 21:22:43;;;;;;;5.43;2.40;;;17.50;99.90;;;;;;6284726;22;20015;-90
2022/08/18 21:25:15;;;;;;;5.25;2.70;;;17.50;99.90;;;;;;6311153;22;20022;-88
2022/08/18 21:27:49;;;;;;;6.28;2.72;;;17.40;99.90;;;;;;6284817;22;20019;-89
2022/08/18 21:30:23;;;;;;;5.10;2.20;;;17.30;99.90;;;;;;6310313;22;20022;-90
2022/08/18 21:32:49;;;;;;;5.32;2.67;;;17.30;99.90;;;;;;6310622;22;20332;-90
2022/08/18 21:35:31;;;;;;;6.50;2.72;;;17.30;99.90;;;;;;6338098;22;20402;-91
2022/08/18 21:38:11;;;;;;;4.93;2.35;;;17.30;99.90;;;;;;6310462;22;20050;-88
2022/08/18 21:40:43;;;;;;;5.30;2.92;;;17.20;99.90;;;;;;6310149;22;20091;-90
2022/08/18 21:43:11;;;;;;;5.97;2.30;;;17.20;99.90;;;;;;6284045;22;20098;-88
2022/08/18 21:45:45;;;;;;;5.47;2.53;;;17.20;99.90;;;;;;6311513;22;20019;-92
2022/08/18 21:48:11;;;;;;;6.03;2.83;;;17.20;99.90;;;;;;6286525;22;20046;-89
2022/08/18 21:50:37;;;;;;;5.03;2.90;;;17.20;99.90;;;;;;6286303;22;20041;-89
2022/08/18 21:53:13;;;;;;;;;;;17.20;99.90;;;;;;6286891;22;20023;-90
2022/08/18 21:55:44;;;;;;;4.70;2.38;;;17.10;99.90;;;;;;6312129;22;19921;-89
2022/08/18 21:58:16;;;;;;;5.65;2.35;;;17.10;99.90;;;;;;6312193;22;20023;-88
2022/08/18 22:01:06;;;;;;;4.72;2.03;;;17.10;99.90;;;;;;6312102;22;20050;-88
2022/08/18 22:03:49;;;;;;;3.70;1.70;;;17.00;99.90;;;;;;6311839;22;20019;-89
2022/08/18 22:06:29;;;;;;;5.57;2.17;;;16.90;99.90;;;;;;6287049;22;20019;-91
2022/08/18 22:15:24;;;;;;;5.55;1.98;;;16.50;99.90;;;;;;6312061;22;20015;-90
2022/08/18 22:17:58;;;;;;;3.90;1.70;;;16.50;99.90;;;;;;6339721;22;20041;-87
2022/08/18 22:20:47;;;;;;;3.47;1.58;;;16.50;99.90;;;;;;6286326;22;20076;-88
2022/08/18 22:26:15;;;;;;;6.22;1.95;;;16.40;99.90;;;;;;6339518;22;20101;-90
2022/08/18 22:29:09;;;;;;;4.03;1.98;;;16.50;99.90;;;;;;6311934;22;20037;-88
2022/08/18 22:31:37;;;;;;;4.30;2.00;;;16.40;99.90;;;;;;6311945;22;20098;-88
2022/08/18 22:34:16;;;;;;;4.97;2.50;;;16.40;99.90;;;;;;6286004;22;20106;-89
2022/08/18 22:36:59;;;;;;;5.43;2.67;;;16.40;99.90;;;;;;6339362;22;20023;-89
2022/08/18 22:39:36;;;;;;;4.35;2.22;;;16.40;99.90;;;;;;6311881;22;20019;-91
2022/08/18 22:42:03;;;;;;;4.50;2.35;;;16.40;99.90;;;;;;6286208;22;20026;-90
2022/08/18 22:44:29;;;;;;;3.58;1.55;;;16.30;99.90;;;;;;6311499;22;20102;-88
2022/08/18 22:46:55;;;;;;;3.70;1.60;;;16.30;99.90;;;;;;6285508;22;20046;-88
2022/08/18 22:49:23;;;;;;;4.22;1.90;;;16.30;99.90;;;;;;6285927;22;20019;-88
2022/08/18 22:51:50;;;;;;;5.53;2.53;;;16.30;99.90;;;;;;6311519;22;20084;-88
2022/08/18 22:54:17;;;;;;;6.07;2.40;;;16.30;99.90;;;;;;6311399;22;20057;-87
2022/08/18 22:56:44;;;;;;;5.60;2.70;;;16.30;99.90;;;;;;6311221;22;20022;-90
2022/08/18 22:59:11;;;;;;;5.40;2.35;;;16.30;99.90;;;;;;6286046;22;20050;-93
2022/08/18 23:12:14;;;;;;;5.22;2.83;;;16.30;99.90;;;;;;6350972;22;20069;-88
2022/08/18 23:14:43;;;;;;;5.30;2.50;;;16.30;99.90;;;;;;6331552;22;20022;-90
2022/08/18 23:17:11;;;;;;;5.00;2.40;;;16.30;99.90;;;;;;6298769;22;20160;-91
2022/08/18 23:19:45;;;;;;;4.38;2.30;;;16.30;99.90;;;;;;6327823;22;20023;-89
2022/08/18 23:22:12;;;;;;;4.50;2.10;;;16.30;99.90;;;;;;6302670;22;20023;-90
